Westford, Pennsylvania
Current Conditions -  °F | °C
As of 8:53 AM on Monday 24 Nov 2014 (Local Time) from KGKJ Reporting Station
Overcast Overcast  
Wind Chill: 58°   Ceiling: 2200
Heat Index: 58°   Visibility: 10mi
Dew Point: 51°   Wind: 15mph
Humidity: 78%   Direction: 190°S
Pressure: 29.35"   Gusts: 25mph
Location:  41.5078°N, 80.4555°W
Report Text: KGKJ 241353Z AUTO 19013G22KT 10SM BKN022 OVC027 14/11 A2935 RMK AO2 RAE09 SLP937 P0000 T01440106 TSNO
Loading
Personal Weather Stations






























Interactive Weather Map New forecast layout! Learn more

10-Day Weather Forecast

Advertisements
Track Severe Weather on mobile